createdAt,value
2018-07-14T00:01:24.024Z,37.55
2018-07-14T00:03:01.496Z,37.52
2018-07-14T00:04:37.926Z,37.08
2018-07-14T00:06:14.751Z,37.32
2018-07-14T00:07:52.376Z,37.00
2018-07-14T00:09:30.612Z,37.75
2018-07-14T00:11:08.737Z,37.26
2018-07-14T00:12:46.006Z,37.13
2018-07-14T00:14:22.553Z,37.35
2018-07-14T00:16:00.921Z,37.75
2018-07-14T00:17:37.164Z,37.25
2018-07-14T00:19:14.169Z,37.93
2018-07-14T00:20:51.457Z,38.03
2018-07-14T00:22:28.172Z,37.97
2018-07-14T00:24:06.130Z,38.01
2018-07-14T00:25:48.256Z,37.84
2018-07-14T00:27:25.782Z,37.95
2018-07-14T00:29:03.774Z,37.47
2018-07-14T00:30:40.650Z,38.28
2018-07-14T00:32:17.062Z,37.53
2018-07-14T00:33:53.572Z,38.23
2018-07-14T00:35:30.489Z,38.12
2018-07-14T00:37:08.534Z,38.16
2018-07-14T00:38:46.516Z,37.80
2018-07-14T00:40:23.129Z,38.50
2018-07-14T00:42:00.097Z,38.04
2018-07-14T00:43:36.502Z,37.83
2018-07-14T00:47:01.621Z,38.69
2018-07-14T00:48:42.642Z,38.13
2018-07-14T00:50:20.560Z,38.01
2018-07-14T00:52:24.068Z,38.59
2018-07-14T00:54:02.251Z,38.15
2018-07-14T00:55:40.101Z,38.90
2018-07-14T00:57:17.114Z,38.35
2018-07-14T00:58:53.916Z,38.14
2018-07-14T01:00:33.338Z,38.96
2018-07-14T01:02:10.363Z,38.39
2018-07-14T01:03:47.808Z,39.03
2018-07-14T01:05:24.405Z,39.05
2018-07-14T01:07:01.890Z,39.09
2018-07-14T01:08:40.603Z,39.12
2018-07-14T01:10:18.821Z,38.55
2018-07-14T01:12:01.528Z,38.53
2018-07-14T01:13:38.898Z,38.79
2018-07-14T01:15:17.278Z,39.25
2018-07-14T01:16:53.720Z,38.72
2018-07-14T01:18:35.586Z,39.41
2018-07-14T01:20:12.525Z,39.21
2018-07-14T01:21:54.671Z,39.43
2018-07-14T01:23:32.393Z,38.91
2018-07-14T01:25:08.953Z,38.84
2018-07-14T01:26:48.093Z,38.93
2018-07-14T01:28:28.548Z,39.54
2018-07-14T01:30:07.901Z,39.59
2018-07-14T01:31:46.047Z,39.58
2018-07-14T01:33:23.421Z,39.02
2018-07-14T01:35:03.395Z,39.15
2018-07-14T01:36:40.455Z,39.17
2018-07-14T01:38:17.393Z,39.78
2018-07-14T01:39:54.289Z,39.96
2018-07-14T01:41:30.842Z,39.88
2018-07-14T01:43:17.281Z,39.87
2018-07-14T01:44:55.705Z,39.35
2018-07-14T01:46:33.228Z,39.69
2018-07-14T01:48:13.016Z,39.69
2018-07-14T01:49:50.392Z,40.04
2018-07-14T01:51:30.471Z,39.96
2018-07-14T01:53:07.697Z,40.09
2018-07-14T01:54:44.143Z,40.21
2018-07-14T01:56:20.484Z,40.36
2018-07-14T01:57:56.906Z,40.39
2018-07-14T01:59:33.275Z,40.33
2018-07-14T02:01:09.432Z,40.02
2018-07-14T02:02:47.960Z,40.00
2018-07-14T02:04:25.957Z,39.93
2018-07-14T02:06:02.437Z,40.61
2018-07-14T02:07:39.081Z,39.87
2018-07-14T02:09:15.928Z,40.09
2018-07-14T02:10:52.311Z,40.06
2018-07-14T02:12:28.622Z,40.54
2018-07-14T02:14:05.270Z,40.57
2018-07-14T02:15:43.014Z,40.72
2018-07-14T02:17:21.525Z,40.75
2018-07-14T02:18:59.988Z,40.26
2018-07-14T02:20:36.422Z,40.85
2018-07-14T02:22:13.856Z,40.28
2018-07-14T02:23:50.275Z,40.91
2018-07-14T02:25:26.790Z,40.96
2018-07-14T02:27:03.277Z,40.40
2018-07-14T02:28:40.305Z,40.76
2018-07-14T02:30:19.612Z,41.00
2018-07-14T02:31:56.158Z,41.10
2018-07-14T02:33:32.521Z,41.16
2018-07-14T02:35:09.266Z,40.51
2018-07-14T02:36:45.701Z,40.49
2018-07-14T02:38:22.841Z,41.21
2018-07-14T02:39:59.502Z,41.18
2018-07-14T02:41:36.330Z,40.60
2018-07-14T02:43:12.650Z,40.76
2018-07-14T02:44:49.059Z,41.03
2018-07-14T02:46:25.742Z,41.01
2018-07-14T02:48:07.100Z,41.37
2018-07-14T02:49:47.488Z,41.43
2018-07-14T02:51:28.231Z,41.45
2018-07-14T02:53:09.705Z,41.16
2018-07-14T02:54:50.684Z,41.00
2018-07-14T02:56:27.304Z,41.59
2018-07-14T02:58:03.751Z,41.04
2018-07-14T02:59:41.176Z,41.43
2018-07-14T03:01:17.994Z,40.81
2018-07-14T03:02:54.269Z,41.12
2018-07-14T03:04:30.612Z,41.76
2018-07-14T03:06:07.824Z,41.80
2018-07-14T03:07:44.274Z,41.30
2018-07-14T03:10:55.543Z,42.01
2018-07-14T03:12:32.142Z,41.98
2018-07-14T03:14:10.530Z,42.07
2018-07-14T03:15:48.180Z,42.10
2018-07-14T03:17:26.554Z,42.09
2018-07-14T03:19:03.539Z,41.51
2018-07-14T03:20:42.829Z,41.54
2018-07-14T03:22:19.171Z,41.72
2018-07-14T03:23:55.636Z,41.73
2018-07-14T03:25:32.007Z,41.56
2018-07-14T03:27:08.450Z,41.64
2018-07-14T03:28:44.776Z,42.28
2018-07-14T03:30:21.319Z,41.99
2018-07-14T03:31:58.169Z,41.63
2018-07-14T03:33:34.587Z,41.80
2018-07-14T03:35:11.620Z,42.39
2018-07-14T03:36:52.647Z,41.93
2018-07-14T03:38:29.468Z,42.68
2018-07-14T03:40:06.165Z,42.56
2018-07-14T03:41:42.559Z,42.14
2018-07-14T03:43:21.967Z,42.64
2018-07-14T03:45:03.609Z,42.11
2018-07-14T03:46:40.134Z,42.74
2018-07-14T03:48:19.762Z,42.31
2018-07-14T03:49:56.478Z,42.90
2018-07-14T03:51:35.541Z,42.37
2018-07-14T03:53:11.834Z,42.27
2018-07-14T03:54:49.382Z,42.70
2018-07-14T03:56:26.758Z,43.03
2018-07-14T03:58:03.166Z,42.46
2018-07-14T03:59:39.514Z,43.06
2018-07-14T04:01:20.388Z,43.14
2018-07-14T04:02:56.766Z,43.14
2018-07-14T04:04:34.816Z,43.06
2018-07-14T04:06:21.525Z,42.61
2018-07-14T04:07:57.787Z,42.63
2018-07-14T04:09:34.118Z,43.05
2018-07-14T04:11:10.903Z,43.33
2018-07-14T04:12:48.586Z,42.73
2018-07-14T04:14:24.998Z,43.50
2018-07-14T04:16:04.537Z,43.56
2018-07-14T04:17:52.419Z,42.96
2018-07-14T04:19:28.702Z,43.39
2018-07-14T04:21:05.129Z,43.24
2018-07-14T04:22:43.285Z,43.14
2018-07-14T04:24:28.007Z,43.23
2018-07-14T04:26:09.656Z,43.13
2018-07-14T04:27:53.569Z,43.35
2018-07-14T04:29:55.972Z,43.49
2018-07-14T04:31:36.778Z,43.37
2018-07-14T04:33:16.096Z,43.94
2018-07-14T04:34:52.870Z,43.72
2018-07-14T04:36:29.215Z,43.88
2018-07-14T04:38:05.698Z,44.20
2018-07-14T04:39:42.362Z,43.61
2018-07-14T04:41:19.079Z,44.30
2018-07-14T04:42:55.408Z,43.89
2018-07-14T04:44:31.723Z,44.25
2018-07-14T04:46:09.417Z,44.26
2018-07-14T04:48:04.011Z,44.39
2018-07-14T04:49:40.380Z,44.56
2018-07-14T04:51:16.679Z,43.92
2018-07-14T04:52:56.039Z,44.49
2018-07-14T04:54:36.343Z,44.54
2018-07-14T04:56:12.852Z,44.64
2018-07-14T04:57:49.179Z,44.03
2018-07-14T05:01:31.594Z,44.86
2018-07-14T05:04:39.347Z,44.10
2018-07-14T05:06:17.731Z,44.92
2018-07-14T05:07:54.545Z,44.46
2018-07-14T05:09:32.727Z,44.56
2018-07-14T05:11:12.038Z,44.26
2018-07-14T05:12:48.330Z,45.06
2018-07-14T05:14:24.632Z,44.48
2018-07-14T05:16:01.358Z,44.40
2018-07-14T05:17:38.445Z,45.23
2018-07-14T05:19:15.846Z,44.62
2018-07-14T05:20:52.243Z,45.06
2018-07-14T05:22:37.738Z,44.99
2018-07-14T05:24:16.485Z,45.19
2018-07-14T05:25:54.624Z,44.99
2018-07-14T05:27:30.943Z,44.97
2018-07-14T05:29:07.287Z,44.68
2018-07-14T05:30:44.338Z,44.90
2018-07-14T05:32:20.891Z,44.89
2018-07-14T05:33:57.245Z,45.26
2018-07-14T05:35:33.691Z,45.03
2018-07-14T05:37:10.437Z,45.35
2018-07-14T05:38:46.801Z,45.13
2018-07-14T05:40:24.017Z,45.17
2018-07-14T05:42:00.353Z,44.99
2018-07-14T05:43:36.814Z,44.81
2018-07-14T05:45:15.465Z,45.55
2018-07-14T05:46:52.042Z,45.12
2018-07-14T05:48:28.364Z,44.94
2018-07-14T05:50:08.306Z,44.62
2018-07-14T05:51:45.263Z,44.73
2018-07-14T05:53:23.147Z,45.13
2018-07-14T05:54:59.449Z,45.16
2018-07-14T05:56:36.283Z,44.69
2018-07-14T05:58:15.451Z,45.01
2018-07-14T05:59:52.755Z,45.12
2018-07-14T06:01:29.160Z,45.12
2018-07-14T06:03:06.027Z,45.07
2018-07-14T06:04:43.171Z,44.76
2018-07-14T06:06:21.854Z,44.74
2018-07-14T06:07:58.202Z,44.69
2018-07-14T06:09:34.937Z,45.52
2018-07-14T06:11:11.838Z,45.19
2018-07-14T06:12:52.350Z,44.96
2018-07-14T06:14:29.463Z,45.02
2018-07-14T06:16:06.502Z,45.00
2018-07-14T06:17:42.804Z,44.87
2018-07-14T06:19:19.665Z,44.82
2018-07-14T06:20:57.534Z,45.06
2018-07-14T06:22:34.727Z,44.79
2018-07-14T06:24:11.070Z,44.58
2018-07-14T06:25:47.812Z,44.96
2018-07-14T06:27:25.002Z,44.67
2018-07-14T06:29:01.906Z,45.26
2018-07-14T06:30:38.272Z,44.83
2018-07-14T06:32:14.547Z,44.85
2018-07-14T06:33:53.677Z,45.05
2018-07-14T06:35:31.755Z,45.01
2018-07-14T06:37:19.705Z,44.65
2018-07-14T06:38:59.046Z,44.59
2018-07-14T06:40:37.993Z,45.17
2018-07-14T06:43:52.933Z,44.65
2018-07-14T06:45:30.768Z,45.10
2018-07-14T06:47:07.615Z,45.13
2018-07-14T06:48:44.310Z,45.19
2018-07-14T06:50:32.181Z,44.95
2018-07-14T06:52:08.893Z,44.98
2018-07-14T06:53:52.156Z,44.70
2018-07-14T06:55:29.537Z,45.20
2018-07-14T06:57:05.914Z,44.25
2018-07-14T06:58:43.035Z,44.33
2018-07-14T07:00:25.527Z,44.29
2018-07-14T07:02:02.401Z,44.49
2018-07-14T07:03:39.492Z,44.25
2018-07-14T07:05:18.163Z,44.95
2018-07-14T07:06:54.911Z,44.41
2018-07-14T07:08:33.171Z,44.29
2018-07-14T07:10:09.615Z,44.62
2018-07-14T07:11:47.719Z,44.66
2018-07-14T07:13:25.057Z,44.85
2018-07-14T07:15:03.149Z,44.53
2018-07-14T07:16:40.705Z,44.00
2018-07-14T07:18:23.450Z,44.77
2018-07-14T07:20:01.813Z,44.35
2018-07-14T07:21:42.407Z,44.75
2018-07-14T07:23:19.267Z,44.49
2018-07-14T07:24:57.324Z,43.98
2018-07-14T07:26:34.049Z,44.08
2018-07-14T07:28:11.754Z,44.38
2018-07-14T07:29:52.179Z,44.52
2018-07-14T07:31:29.545Z,44.75
2018-07-14T07:33:06.652Z,44.38
2018-07-14T07:34:43.297Z,44.71
2018-07-14T07:36:23.643Z,43.82
2018-07-14T07:38:01.362Z,43.94
2018-07-14T07:39:38.043Z,43.95
2018-07-14T07:41:19.202Z,43.93
2018-07-14T07:42:56.519Z,43.93
2018-07-14T07:44:36.074Z,44.57
2018-07-14T07:46:21.396Z,44.47
2018-07-14T07:48:00.481Z,44.44
2018-07-14T07:49:37.784Z,43.75
2018-07-14T07:51:14.748Z,43.81
2018-07-14T07:52:51.401Z,43.87
2018-07-14T07:54:27.741Z,44.02
2018-07-14T07:56:04.257Z,44.52
2018-07-14T07:57:41.454Z,43.95
2018-07-14T07:59:18.312Z,44.10
2018-07-14T08:00:56.561Z,44.05
2018-07-14T08:02:34.727Z,43.73
2018-07-14T08:04:12.891Z,43.88
2018-07-14T08:05:49.843Z,43.77
2018-07-14T08:07:28.113Z,43.57
2018-07-14T08:09:09.287Z,43.89
2018-07-14T08:10:45.647Z,44.19
2018-07-14T08:12:23.990Z,44.26
2018-07-14T08:14:00.490Z,43.68
2018-07-14T08:15:38.834Z,44.46
2018-07-14T08:17:18.298Z,43.76
2018-07-14T08:18:56.331Z,43.98
2018-07-14T08:20:33.551Z,43.89
2018-07-14T08:22:13.268Z,43.63
2018-07-14T08:23:51.825Z,43.64
2018-07-14T08:25:31.617Z,43.91
2018-07-14T08:27:08.651Z,43.78
2018-07-14T08:28:45.792Z,43.75
2018-07-14T08:30:22.874Z,43.47
2018-07-14T08:32:00.440Z,44.31
2018-07-14T08:33:44.086Z,44.21
2018-07-14T08:36:57.474Z,43.56
2018-07-14T08:38:34.151Z,43.66
2018-07-14T08:40:11.925Z,43.45
2018-07-14T08:41:48.452Z,43.80
2018-07-14T08:43:25.677Z,43.63
2018-07-14T08:45:07.531Z,43.49
2018-07-14T08:46:55.342Z,43.90
2018-07-14T08:48:45.310Z,43.94
2018-07-14T08:50:29.553Z,43.93
2018-07-14T08:52:10.419Z,43.65
2018-07-14T08:53:48.286Z,43.73
2018-07-14T08:55:26.950Z,43.98
2018-07-14T08:57:11.327Z,43.91
2018-07-14T08:58:53.235Z,43.94
2018-07-14T09:00:49.285Z,43.96
2018-07-14T09:02:30.528Z,43.81
2018-07-14T09:04:12.300Z,44.03
2018-07-14T09:05:58.849Z,43.62
2018-07-14T09:07:37.582Z,43.96
2018-07-14T09:09:16.706Z,44.17
2018-07-14T09:10:58.223Z,43.89
2018-07-14T09:12:36.634Z,43.93
2018-07-14T09:14:14.911Z,43.58
2018-07-14T09:15:59.331Z,43.88
2018-07-14T09:17:35.770Z,44.18
2018-07-14T09:19:13.303Z,44.11
2018-07-14T09:20:54.386Z,43.58
2018-07-14T09:22:34.509Z,44.09
2018-07-14T09:24:12.252Z,43.52
2018-07-14T09:25:49.564Z,44.25
2018-07-14T09:27:30.417Z,43.48
2018-07-14T09:29:11.555Z,43.55
2018-07-14T09:30:50.190Z,44.16
2018-07-14T09:32:30.553Z,43.53
2018-07-14T09:34:09.246Z,43.51
2018-07-14T09:35:48.756Z,43.68
2018-07-14T09:37:25.815Z,43.52
2018-07-14T09:39:03.379Z,43.79
2018-07-14T09:40:46.518Z,43.47
2018-07-14T09:42:26.878Z,43.81
2018-07-14T09:44:04.871Z,44.14
2018-07-14T09:45:46.558Z,44.16
2018-07-14T09:47:26.677Z,43.49
2018-07-14T09:49:07.878Z,43.51
2018-07-14T09:50:50.242Z,43.40
2018-07-14T09:52:29.480Z,43.48
2018-07-14T09:54:17.008Z,43.48
2018-07-14T09:55:55.760Z,43.57
2018-07-14T09:57:37.182Z,43.64
2018-07-14T10:01:06.801Z,43.73
2018-07-14T10:02:47.170Z,43.76
2018-07-14T10:04:25.618Z,43.84
2018-07-14T10:06:07.851Z,43.94
2018-07-14T10:07:48.671Z,43.49
2018-07-14T10:09:26.543Z,43.97
2018-07-14T10:11:04.315Z,43.81
2018-07-14T10:12:44.574Z,43.55
2018-07-14T10:16:04.384Z,43.71
2018-07-14T10:17:41.005Z,43.90
2018-07-14T10:19:19.200Z,43.39
2018-07-14T10:20:57.312Z,43.68
2018-07-14T10:22:36.452Z,43.65
2018-07-14T10:24:15.321Z,43.54
2018-07-14T10:25:56.200Z,43.20
2018-07-14T10:27:39.357Z,43.83
2018-07-14T10:29:16.707Z,43.92
2018-07-14T10:30:55.206Z,43.44
2018-07-14T10:32:35.077Z,43.85
2018-07-14T10:34:12.004Z,43.91
2018-07-14T10:35:51.669Z,43.47
2018-07-14T10:37:31.184Z,43.85
2018-07-14T10:39:11.793Z,43.33
2018-07-14T10:40:53.975Z,43.79
2018-07-14T10:42:31.085Z,43.50
2018-07-14T10:44:15.730Z,43.64
2018-07-14T10:47:52.561Z,43.24
2018-07-14T10:49:35.292Z,43.61
2018-07-14T10:51:15.152Z,43.66
2018-07-14T10:52:54.490Z,43.91
2018-07-14T10:54:44.799Z,43.48
2018-07-14T10:56:27.375Z,43.23
2018-07-14T10:58:07.675Z,43.58
2018-07-14T11:00:11.654Z,43.37
2018-07-14T11:01:51.431Z,43.11
2018-07-14T11:03:29.757Z,43.54
2018-07-14T11:05:09.318Z,43.60
2018-07-14T11:06:46.663Z,43.17
2018-07-14T11:08:23.680Z,43.82
2018-07-14T11:10:07.383Z,43.76
2018-07-14T11:11:46.315Z,43.02
2018-07-14T11:13:23.773Z,43.08
2018-07-14T11:15:00.860Z,42.96
2018-07-14T11:16:42.213Z,43.11
2018-07-14T11:18:21.538Z,43.68
2018-07-14T11:20:00.781Z,43.71
2018-07-14T11:21:37.797Z,43.72
2018-07-14T11:23:15.443Z,43.26
2018-07-14T11:24:52.673Z,43.69
2018-07-14T11:26:34.230Z,42.89
2018-07-14T11:28:11.385Z,43.20
2018-07-14T11:29:48.375Z,43.43
2018-07-14T11:31:32.816Z,43.66
2018-07-14T11:33:13.215Z,42.93
2018-07-14T11:34:51.178Z,43.70
2018-07-14T11:36:28.166Z,43.58
2018-07-14T11:38:05.296Z,43.30
2018-07-14T11:39:42.505Z,43.37
2018-07-14T11:41:19.829Z,42.95
2018-07-14T11:42:58.200Z,42.92
2018-07-14T11:44:36.546Z,43.58
2018-07-14T11:46:13.345Z,43.08
2018-07-14T11:47:49.832Z,42.75
2018-07-14T11:49:27.750Z,43.16
2018-07-14T11:51:04.077Z,43.20
2018-07-14T11:52:40.464Z,43.54
2018-07-14T11:54:16.878Z,43.10
2018-07-14T11:55:54.036Z,42.68
2018-07-14T11:57:30.360Z,43.43
2018-07-14T11:59:07.538Z,42.84
2018-07-14T12:00:45.664Z,43.40
2018-07-14T12:02:24.448Z,42.95
2018-07-14T12:04:03.914Z,43.34
2018-07-14T12:05:41.172Z,43.22
2018-07-14T12:07:19.934Z,43.19
2018-07-14T12:08:57.393Z,43.05
2018-07-14T12:10:45.669Z,43.44
2018-07-14T12:12:24.520Z,42.70
2018-07-14T12:14:02.581Z,42.97
2018-07-14T12:15:45.276Z,43.35
2018-07-14T12:17:24.902Z,42.48
2018-07-14T12:19:05.789Z,43.04
2018-07-14T12:20:45.866Z,42.74
2018-07-14T12:22:24.811Z,42.51
2018-07-14T12:24:03.004Z,42.46
2018-07-14T12:25:44.070Z,42.41
2018-07-14T12:27:20.535Z,42.45
2018-07-14T12:28:57.725Z,42.86
2018-07-14T12:30:36.013Z,42.36
2018-07-14T12:32:14.603Z,42.36
2018-07-14T12:34:02.650Z,42.38
2018-07-14T12:35:41.945Z,42.62
2018-07-14T12:37:19.528Z,42.74
2018-07-14T12:38:56.424Z,42.49
2018-07-14T12:40:33.494Z,42.99
2018-07-14T12:42:09.982Z,42.63
2018-07-14T12:43:46.320Z,42.89
2018-07-14T12:45:24.839Z,42.17
2018-07-14T12:47:02.545Z,42.30
2018-07-14T12:48:40.895Z,42.41
2018-07-14T12:50:18.250Z,42.66
2018-07-14T12:51:57.713Z,42.44
2018-07-14T12:53:39.153Z,42.29
2018-07-14T12:55:18.504Z,42.72
2018-07-14T12:56:54.910Z,42.18
2018-07-14T12:58:31.605Z,41.97
2018-07-14T13:00:08.786Z,41.90
2018-07-14T13:01:46.288Z,42.04
2018-07-14T13:03:22.589Z,42.32
2018-07-14T13:05:09.830Z,41.83
2018-07-14T13:06:50.646Z,42.00
2018-07-14T13:08:30.737Z,41.79
2018-07-14T13:10:10.237Z,42.34
2018-07-14T13:11:47.801Z,42.44
2018-07-14T13:13:27.395Z,42.38
2018-07-14T13:15:07.290Z,42.33
2018-07-14T13:16:46.192Z,42.16
2018-07-14T13:18:22.698Z,41.61
2018-07-14T13:20:01.006Z,42.22
2018-07-14T13:21:38.057Z,41.56
2018-07-14T13:23:14.726Z,41.98
2018-07-14T13:24:52.588Z,42.22
2018-07-14T13:26:28.976Z,41.74
2018-07-14T13:28:05.799Z,41.88
2018-07-14T13:29:46.250Z,41.42
2018-07-14T13:31:24.686Z,41.18
2018-07-14T13:33:02.488Z,41.58
2018-07-14T13:34:38.934Z,41.97
2018-07-14T13:36:17.949Z,41.62
2018-07-14T13:37:55.839Z,41.43
2018-07-14T13:39:32.284Z,42.01
2018-07-14T13:41:09.602Z,41.36
2018-07-14T13:42:50.552Z,40.85
2018-07-14T13:44:31.615Z,41.65
2018-07-14T13:46:11.601Z,41.69
2018-07-14T13:47:48.271Z,41.53
2018-07-14T13:49:27.911Z,41.66
2018-07-14T13:51:05.303Z,41.02
2018-07-14T13:52:42.353Z,41.65
2018-07-14T13:54:25.253Z,41.95
2018-07-14T13:56:02.524Z,41.04
2018-07-14T13:57:41.693Z,40.81
2018-07-14T14:01:03.426Z,41.18
2018-07-14T14:02:45.513Z,41.35
2018-07-14T14:04:23.652Z,41.18
2018-07-14T14:06:00.121Z,40.60
2018-07-14T14:07:42.546Z,40.72
2018-07-14T14:09:19.437Z,41.40
2018-07-14T14:10:57.521Z,40.53
2018-07-14T14:12:35.821Z,40.49
2018-07-14T14:14:12.483Z,40.91
2018-07-14T14:15:50.405Z,40.70
2018-07-14T14:17:26.862Z,41.21
2018-07-14T14:19:04.933Z,40.47
2018-07-14T14:20:42.019Z,40.67
2018-07-14T14:22:20.743Z,40.99
2018-07-14T14:23:58.654Z,40.15
2018-07-14T14:25:36.600Z,40.84
2018-07-14T14:27:13.516Z,40.97
2018-07-14T14:28:50.481Z,40.18
2018-07-14T14:30:28.511Z,40.58
2018-07-14T14:32:07.915Z,40.65
2018-07-14T14:33:47.746Z,40.45
2018-07-14T14:35:24.465Z,40.44
2018-07-14T14:37:03.960Z,40.52
2018-07-14T14:38:43.592Z,40.08
2018-07-14T14:40:21.949Z,40.06
2018-07-14T14:42:01.841Z,40.51
2018-07-14T14:43:41.389Z,40.62
2018-07-14T14:45:18.670Z,40.38
2018-07-14T14:46:55.998Z,40.27
2018-07-14T14:48:35.908Z,39.99
2018-07-14T14:50:17.052Z,39.67
2018-07-14T14:51:54.752Z,40.41
2018-07-14T14:53:31.253Z,39.74
2018-07-14T14:55:08.650Z,40.31
2018-07-14T14:56:45.155Z,39.97
2018-07-14T14:58:21.631Z,39.78
2018-07-14T14:59:58.115Z,39.95
2018-07-14T15:01:35.026Z,40.16
2018-07-14T15:03:12.646Z,39.53
2018-07-14T15:04:49.033Z,40.04
2018-07-14T15:06:25.984Z,39.34
2018-07-14T15:08:04.638Z,39.14
2018-07-14T15:09:42.011Z,39.10
2018-07-14T15:11:22.592Z,39.69
2018-07-14T15:13:03.727Z,39.84
2018-07-14T15:14:42.381Z,39.62
2018-07-14T15:18:08.655Z,39.43
2018-07-14T15:19:46.253Z,39.51
2018-07-14T15:21:23.520Z,39.64
2018-07-14T15:23:00.741Z,38.93
2018-07-14T15:24:43.235Z,39.40
2018-07-14T15:26:21.636Z,39.57
2018-07-14T15:27:59.858Z,39.22
2018-07-14T15:29:38.729Z,38.79
2018-07-14T15:31:16.394Z,39.48
2018-07-14T15:32:54.781Z,39.44
2018-07-14T15:34:33.407Z,39.11
2018-07-14T15:36:10.774Z,38.94
2018-07-14T15:37:47.109Z,38.99
2018-07-14T15:39:23.765Z,38.54
2018-07-14T15:41:01.610Z,38.54
2018-07-14T15:42:42.622Z,38.92
2018-07-14T15:44:20.675Z,38.58
2018-07-14T15:45:58.559Z,38.59
2018-07-14T15:47:35.003Z,38.63
2018-07-14T15:49:14.574Z,38.60
2018-07-14T15:50:50.950Z,38.33
2018-07-14T15:52:31.577Z,38.53
2018-07-14T15:54:10.624Z,38.96
2018-07-14T15:55:49.458Z,38.86
2018-07-14T15:57:26.293Z,38.54
2018-07-14T15:59:02.594Z,39.12
2018-07-14T16:00:39.797Z,38.74
2018-07-14T16:02:32.106Z,38.37
2018-07-14T16:04:09.669Z,38.85
2018-07-14T16:05:46.070Z,38.44
2018-07-14T16:07:22.494Z,37.93
2018-07-14T16:09:00.776Z,38.47
2018-07-14T16:10:38.792Z,37.92
2018-07-14T16:12:21.448Z,37.96
2018-07-14T16:13:58.682Z,38.19
2018-07-14T16:15:39.981Z,37.87
2018-07-14T16:17:17.996Z,38.46
2018-07-14T16:18:56.751Z,38.52
2018-07-14T16:20:33.777Z,37.83
2018-07-14T16:22:10.188Z,38.50
2018-07-14T16:23:47.272Z,37.97
2018-07-14T16:25:23.401Z,37.73
2018-07-14T16:27:03.522Z,37.60
2018-07-14T16:28:40.915Z,37.59
2018-07-14T16:30:22.424Z,37.15
2018-07-14T16:32:24.549Z,37.46
2018-07-14T16:34:02.464Z,37.69
2018-07-14T16:35:40.558Z,37.38
2018-07-14T16:37:18.765Z,37.68
2018-07-14T16:38:55.517Z,37.57
2018-07-14T16:40:31.842Z,37.39
2018-07-14T16:42:14.394Z,37.33
2018-07-14T16:43:55.867Z,37.98
2018-07-14T16:45:38.148Z,37.59
2018-07-14T16:47:15.259Z,37.39
2018-07-14T16:48:53.723Z,37.87
2018-07-14T16:50:37.708Z,37.45
2018-07-14T16:52:17.112Z,37.84
2018-07-14T16:53:53.703Z,37.36
2018-07-14T16:55:32.066Z,37.34
2018-07-14T16:57:09.094Z,37.29
2018-07-14T16:58:49.135Z,37.00
2018-07-14T17:00:30.401Z,37.48
2018-07-14T17:02:08.742Z,37.00
2018-07-14T17:05:53.039Z,37.38
2018-07-14T17:07:32.376Z,37.50
2018-07-14T17:09:10.744Z,36.92
2018-07-14T17:10:49.127Z,36.71
2018-07-14T17:12:26.300Z,37.20
2018-07-14T17:14:09.365Z,36.67
2018-07-14T17:15:50.416Z,37.50
2018-07-14T17:17:30.820Z,36.97
2018-07-14T17:19:12.463Z,36.62
2018-07-14T17:20:51.567Z,36.63
2018-07-14T17:22:29.332Z,36.62
2018-07-14T17:24:07.813Z,37.23
2018-07-14T17:25:48.323Z,36.53
2018-07-14T17:27:34.122Z,36.78
2018-07-14T17:29:24.301Z,36.45
2018-07-14T17:31:02.016Z,37.10
2018-07-14T17:32:38.825Z,37.16
2018-07-14T17:34:17.337Z,36.30
2018-07-14T17:36:08.681Z,36.74
2018-07-14T17:37:46.728Z,36.82
2018-07-14T17:39:24.816Z,36.92
2018-07-14T17:41:02.165Z,36.59
2018-07-14T17:42:38.541Z,36.67
2018-07-14T17:44:19.868Z,36.52
2018-07-14T17:46:00.181Z,36.25
2018-07-14T17:47:41.789Z,36.26
2018-07-14T17:49:20.133Z,36.57
2018-07-14T17:50:58.552Z,36.78
2018-07-14T17:52:38.051Z,36.84
2018-07-14T17:54:19.217Z,36.60
2018-07-14T17:56:01.312Z,36.83
2018-07-14T17:57:47.802Z,36.13
2018-07-14T17:59:29.599Z,36.54
2018-07-14T18:01:07.010Z,36.33
2018-07-14T18:02:45.746Z,36.07
2018-07-14T18:04:23.731Z,36.70
2018-07-14T18:06:00.730Z,36.63
2018-07-14T18:07:38.658Z,36.38
2018-07-14T18:09:16.261Z,36.57
2018-07-14T18:10:58.811Z,36.49
2018-07-14T18:12:37.586Z,36.46
2018-07-14T18:14:14.630Z,36.17
2018-07-14T18:15:52.588Z,36.45
2018-07-14T18:17:33.300Z,35.81
2018-07-14T18:19:15.992Z,36.60
2018-07-14T18:20:54.681Z,36.56
2018-07-14T18:22:31.805Z,36.13
2018-07-14T18:24:12.744Z,35.88
2018-07-14T18:25:50.329Z,36.19
2018-07-14T18:27:34.316Z,36.19
2018-07-14T18:29:24.009Z,36.42
2018-07-14T18:31:03.081Z,35.99
2018-07-14T18:32:48.738Z,36.49
2018-07-14T18:34:26.738Z,35.64
2018-07-14T18:36:07.758Z,36.41
2018-07-14T18:37:45.868Z,35.80
2018-07-14T18:39:28.513Z,35.77
2018-07-14T18:41:08.177Z,36.22
2018-07-14T18:42:49.207Z,35.59
2018-07-14T18:44:26.348Z,36.29
2018-07-14T18:46:21.639Z,36.04
2018-07-14T18:48:01.253Z,35.38
2018-07-14T18:49:38.481Z,35.70
2018-07-14T18:51:18.752Z,36.10
2018-07-14T18:52:58.862Z,35.49
2018-07-14T18:54:42.791Z,35.62
2018-07-14T18:56:29.889Z,36.16
2018-07-14T18:58:09.626Z,35.74
2018-07-14T18:59:50.215Z,35.83
2018-07-14T19:01:37.434Z,35.61
2018-07-14T19:03:19.260Z,36.12
2018-07-14T19:04:59.224Z,35.45
2018-07-14T19:06:38.394Z,36.13
2018-07-14T19:08:18.330Z,35.77
2018-07-14T19:10:04.752Z,35.78
2018-07-14T19:11:45.648Z,35.94
2018-07-14T19:13:27.138Z,35.78
2018-07-14T19:15:09.800Z,35.79
2018-07-14T19:16:51.309Z,35.83
2018-07-14T19:18:30.293Z,36.09
2018-07-14T19:20:12.654Z,35.99
2018-07-14T19:21:50.962Z,35.29
2018-07-14T19:23:29.608Z,35.42
2018-07-14T19:25:10.832Z,35.79
2018-07-14T19:26:49.339Z,35.76
2018-07-14T19:28:35.782Z,35.47
2018-07-14T19:30:19.417Z,35.75
2018-07-14T19:32:09.821Z,35.40
2018-07-14T19:33:51.215Z,35.31
2018-07-14T19:35:33.198Z,35.73
2018-07-14T19:37:36.080Z,35.71
2018-07-14T19:39:17.982Z,35.27
2018-07-14T19:40:57.388Z,36.03
2018-07-14T19:42:40.668Z,35.38
2018-07-14T19:44:19.190Z,35.56
2018-07-14T19:46:01.670Z,35.64
2018-07-14T19:47:50.522Z,35.37
2018-07-14T19:49:33.950Z,35.60
2018-07-14T19:51:25.176Z,35.14
2018-07-14T19:53:10.132Z,35.48
2018-07-14T19:54:56.903Z,35.26
2018-07-14T19:56:42.985Z,35.24
2018-07-14T19:58:23.548Z,35.46
2018-07-14T20:00:05.377Z,35.86
2018-07-14T20:01:50.539Z,35.56
2018-07-14T20:03:31.570Z,35.27
2018-07-14T20:05:13.128Z,35.65
2018-07-14T20:06:52.515Z,35.46
2018-07-14T20:08:33.669Z,35.47
2018-07-14T20:10:13.400Z,35.00
2018-07-14T20:12:01.059Z,35.12
2018-07-14T20:13:39.940Z,35.16
2018-07-14T20:15:20.485Z,35.30
2018-07-14T20:17:01.761Z,35.11
2018-07-14T20:18:47.220Z,35.76
2018-07-14T20:20:27.552Z,35.36
2018-07-14T20:22:17.686Z,35.55
2018-07-14T20:24:00.505Z,35.41
2018-07-14T20:25:42.829Z,35.40
2018-07-14T20:27:40.781Z,35.49
2018-07-14T20:29:23.392Z,35.24
2018-07-14T20:31:04.762Z,35.24
2018-07-14T20:32:42.995Z,35.21
2018-07-14T20:34:19.724Z,35.03
2018-07-14T20:35:57.915Z,35.26
2018-07-14T20:37:38.223Z,35.19
2018-07-14T20:39:17.571Z,35.29
2018-07-14T20:40:57.965Z,35.80
2018-07-14T20:42:35.739Z,35.34
2018-07-14T20:44:19.551Z,35.95
2018-07-14T20:46:00.634Z,35.77
2018-07-14T20:47:41.439Z,34.94
2018-07-14T20:49:20.582Z,35.25
2018-07-14T20:51:04.607Z,35.02
2018-07-14T20:52:41.967Z,35.16
2018-07-14T20:54:22.509Z,35.72
2018-07-14T20:56:11.557Z,35.30
2018-07-14T20:58:23.369Z,35.61
2018-07-14T21:00:05.894Z,35.46
2018-07-14T21:01:43.509Z,35.21
2018-07-14T21:03:26.529Z,35.62
2018-07-14T21:05:12.579Z,35.82
2018-07-14T21:09:21.570Z,35.56
2018-07-14T21:11:07.085Z,35.77
2018-07-14T21:12:47.746Z,35.14
2018-07-14T21:14:28.305Z,35.30
2018-07-14T21:16:07.413Z,35.77
2018-07-14T21:17:49.218Z,35.68
2018-07-14T21:19:27.850Z,35.10
2018-07-14T21:21:12.331Z,35.86
2018-07-14T21:22:51.121Z,35.45
2018-07-14T21:24:29.404Z,35.40
2018-07-14T21:26:14.512Z,35.78
2018-07-14T21:27:52.908Z,35.50
2018-07-14T21:29:36.678Z,35.28
2018-07-14T21:33:08.429Z,35.04
2018-07-14T21:35:00.543Z,35.66
2018-07-14T21:36:38.634Z,35.00
2018-07-14T21:38:18.510Z,35.05
2018-07-14T21:40:10.791Z,35.79
2018-07-14T21:42:05.486Z,35.60
2018-07-14T21:43:47.151Z,35.38
2018-07-14T21:45:27.500Z,35.06